Time;durP1;ratioP1;P1;durP2;ratioP2;P2;SDS_P1;SDS_P2;PMS_P1;PMS_P2;Temp;Humidity;BMP_temperature;BMP_pressure;BME280_temperature;BME280_humidity;BME280_pressure;Samples;Min_cycle;Max_cycle;Signal;HPM_P1;HPM_P2
2021/12/09 00:01:22;;;;;;;;;;;2.20;99.90;;;;;;5074409;28;19920;-74
2021/12/09 00:03:48;;;;;;;;;;;2.20;99.90;;;;;;5074419;28;19937;-74
2021/12/09 00:06:15;;;;;;;;;;;2.20;99.90;;;;;;5074003;28;19927;-74
2021/12/09 00:08:42;;;;;;;;;;;2.30;99.90;;;;;;5074223;28;19923;-73
2021/12/09 00:11:07;;;;;;;;;;;2.20;99.90;;;;;;5074381;28;19927;-74
2021/12/09 00:13:33;;;;;;;;;;;2.20;99.90;;;;;;5074395;28;19924;-74
2021/12/09 00:15:59;;;;;;;;;;;2.20;99.90;;;;;;5074159;28;19964;-74
2021/12/09 00:18:25;;;;;;;;;;;2.20;99.90;;;;;;5092125;28;19999;-74
2021/12/09 00:20:51;;;;;;;;;;;2.20;99.90;;;;;;5074147;28;20002;-74
2021/12/09 00:23:16;;;;;;;;;;;2.20;99.90;;;;;;5091960;28;20348;-74
2021/12/09 00:25:42;;;;;;;;;;;2.10;99.90;;;;;;5073484;28;19924;-74
2021/12/09 00:28:07;;;;;;;;;;;2.10;99.90;;;;;;5074147;28;19924;-74
2021/12/09 00:30:33;;;;;;;;;;;2.10;99.90;;;;;;5057614;28;19924;-74
2021/12/09 00:33:00;;;;;;;;;;;2.10;99.90;;;;;;5077042;28;19923;-74
2021/12/09 00:35:31;;;;;;;;;;;2.10;99.90;;;;;;5094088;28;19942;-74
2021/12/09 00:38:01;;;;;;;;;;;2.00;99.90;;;;;;5093609;28;19926;-74
2021/12/09 00:40:27;;;;;;;;;;;2.10;99.90;;;;;;5093761;28;19920;-74
2021/12/09 00:42:53;;;;;;;;;;;2.10;99.90;;;;;;5093498;28;19926;-74
2021/12/09 00:45:18;;;;;;;;;;;2.10;99.90;;;;;;5076946;28;19920;-74
2021/12/09 00:47:44;;;;;;;;;;;2.10;99.90;;;;;;5093307;28;19926;-74
2021/12/09 00:50:10;;;;;;;;;;;2.00;99.90;;;;;;5076796;28;19980;-74
2021/12/09 00:52:36;;;;;;;;;;;2.00;99.90;;;;;;5111539;28;19919;-74
2021/12/09 00:55:03;;;;;;;;;;;2.00;99.90;;;;;;5093652;28;19919;-74
2021/12/09 00:57:28;;;;;;;;;;;2.00;99.90;;;;;;5093857;28;20454;-74
2021/12/09 00:59:54;;;;;;;;;;;2.00;99.90;;;;;;5111568;28;19920;-74
2021/12/09 01:02:20;;;;;;;;;;;2.00;99.90;;;;;;5111929;28;19920;-74
2021/12/09 01:04:46;;;;;;;;;;;1.90;99.90;;;;;;5093360;28;19945;-73
2021/12/09 01:07:11;;;;;;;;;;;1.90;99.90;;;;;;5111307;28;20019;-74
2021/12/09 01:09:37;;;;;;;;;;;1.90;99.90;;;;;;5093818;28;20404;-74
2021/12/09 01:12:03;;;;;;;;;;;1.90;99.90;;;;;;5103903;28;20259;-74
2021/12/09 01:14:29;;;;;;;;;;;1.90;99.90;;;;;;5110168;28;20370;-74
2021/12/09 01:16:55;;;;;;;;;;;1.80;99.90;;;;;;5089787;28;20553;-74
2021/12/09 01:19:20;;;;;;;;;;;1.80;99.90;;;;;;5089372;28;19919;-74
2021/12/09 01:21:46;;;;;;;;;;;1.80;99.90;;;;;;5101741;28;19920;-74
2021/12/09 01:24:11;;;;;;;;;;;1.80;99.90;;;;;;5111460;28;20343;-74
2021/12/09 01:26:37;;;;;;;;;;;1.80;99.90;;;;;;5092997;28;20306;-74
2021/12/09 01:29:11;;;;;;;;;;;1.80;99.90;;;;;;5111477;28;20259;-74
2021/12/09 01:31:39;;;;;;;;;;;1.70;99.90;;;;;;5093003;28;19919;-74
2021/12/09 01:34:05;;;;;;;;;;;1.70;99.90;;;;;;5093010;28;19942;-74
2021/12/09 01:36:31;;;;;;;;;;;1.70;99.90;;;;;;5091681;28;20397;-74
2021/12/09 01:38:57;;;;;;;;;;;1.70;99.90;;;;;;5092343;28;20010;-73
2021/12/09 01:41:22;;;;;;;;;;;1.70;99.90;;;;;;5093260;28;20003;-74
2021/12/09 01:43:48;;;;;;;;;;;1.70;99.90;;;;;;5092524;28;19942;-74
2021/12/09 01:46:15;;;;;;;;;;;1.70;99.90;;;;;;5092529;28;20002;-74
2021/12/09 01:48:41;;;;;;;;;;;1.60;99.90;;;;;;5092426;28;20425;-74
2021/12/09 01:51:07;;;;;;;;;;;1.60;99.90;;;;;;5092556;28;20014;-74
2021/12/09 01:53:32;;;;;;;;;;;1.70;99.90;;;;;;5092484;28;20015;-74
2021/12/09 01:55:59;;;;;;;;;;;1.60;99.90;;;;;;5092551;28;19920;-74
2021/12/09 01:58:24;;;;;;;;;;;1.60;99.90;;;;;;5092582;28;19930;-74
2021/12/09 02:00:50;;;;;;;;;;;1.60;99.90;;;;;;5092803;28;20014;-74
2021/12/09 02:03:16;;;;;;;;;;;1.60;99.90;;;;;;5092447;28;19920;-74
2021/12/09 02:05:41;;;;;;;;;;;1.60;99.90;;;;;;5075575;28;19977;-74
2021/12/09 02:08:07;;;;;;;;;;;1.60;99.90;;;;;;5092279;28;19926;-74
2021/12/09 02:10:33;;;;;;;;;;;1.60;99.90;;;;;;5092579;28;19920;-74
2021/12/09 02:12:59;;;;;;;;;;;1.50;99.90;;;;;;5092385;28;19920;-74
2021/12/09 02:15:25;;;;;;;;;;;1.50;99.90;;;;;;5109274;28;19924;-74
2021/12/09 02:17:51;;;;;;;;;;;1.50;99.90;;;;;;5108749;28;20604;-74
2021/12/09 02:20:17;;;;;;;;;;;1.50;99.90;;;;;;5092167;28;20035;-74
2021/12/09 02:22:46;;;;;;;;;;;1.40;99.90;;;;;;5092305;28;20056;-74
2021/12/09 02:25:13;;;;;;;;;;;1.40;99.90;;;;;;5092037;28;19951;-74
2021/12/09 02:27:38;;;;;;;;;;;1.40;99.90;;;;;;5091877;28;19927;-74
2021/12/09 02:30:04;;;;;;;;;;;1.30;99.90;;;;;;5092208;28;19931;-74
2021/12/09 02:32:30;;;;;;;;;;;1.30;99.90;;;;;;5092496;28;20014;-74
2021/12/09 02:34:55;;;;;;;;;;;1.30;99.90;;;;;;5074964;28;19930;-74
2021/12/09 02:37:21;;;;;;;;;;;1.30;99.90;;;;;;5091877;28;19937;-74
2021/12/09 02:39:47;;;;;;;;;;;1.30;99.90;;;;;;5110434;28;20419;-74
2021/12/09 02:42:12;;;;;;;;;;;1.30;99.90;;;;;;5091825;28;19930;-74
2021/12/09 02:44:38;;;;;;;;;;;1.30;99.90;;;;;;5110400;28;19919;-74
2021/12/09 02:47:03;;;;;;;;;;;1.20;99.90;;;;;;5092225;28;19920;-74
2021/12/09 02:49:30;;;;;;;;;;;1.20;99.90;;;;;;5114205;28;19920;-74
2021/12/09 02:51:57;;;;;;;;;;;1.20;99.90;;;;;;5095770;28;19923;-74
2021/12/09 02:54:24;;;;;;;;;;;1.20;99.90;;;;;;5114560;28;20006;-74
2021/12/09 02:56:52;;;;;;;;;;;1.20;99.90;;;;;;5114379;28;19923;-74
2021/12/09 02:59:17;;;;;;;;;;;1.20;99.90;;;;;;5114139;28;19950;-74
2021/12/09 03:01:56;;;;;;;;;;;1.30;99.90;;;;;;5095469;28;19920;-74
2021/12/09 03:04:22;;;;;;;;;;;1.30;99.90;;;;;;5096317;28;19931;-74
2021/12/09 03:06:50;;;;;;;;;;;1.30;99.90;;;;;;5095616;28;19920;-74
2021/12/09 03:09:17;;;;;;;;;;;1.30;99.90;;;;;;5114280;28;19932;-74
2021/12/09 03:11:44;;;;;;;;;;;1.20;99.90;;;;;;5095901;28;19969;-74
2021/12/09 03:14:10;;;;;;;;;;;1.30;99.90;;;;;;5078744;28;20028;-74
2021/12/09 03:16:37;;;;;;;;;;;1.20;99.90;;;;;;5095678;28;20448;-74
2021/12/09 03:19:04;;;;;;;;;;;1.20;99.90;;;;;;5095844;28;19976;-74
2021/12/09 03:21:31;;;;;;;;;;;1.20;99.90;;;;;;5095477;28;19919;-74
2021/12/09 03:23:57;;;;;;;;;;;1.20;99.90;;;;;;5095513;28;20450;-74
2021/12/09 03:26:39;;;;;;;;;;;1.20;99.90;;;;;;5113790;28;20014;-74
2021/12/09 03:29:06;;;;;;;;;;;1.20;99.90;;;;;;5095225;28;19923;-74
2021/12/09 03:31:32;;;;;;;;;;;1.20;99.90;;;;;;5113727;28;19969;-74
2021/12/09 03:33:58;;;;;;;;;;;1.20;99.90;;;;;;5095147;28;19947;-74
2021/12/09 03:36:28;;;;;;;;;;;1.30;99.90;;;;;;5094665;28;19919;-74
2021/12/09 03:38:56;;;;;;;;;;;1.20;99.90;;;;;;5095615;28;20327;-74
2021/12/09 03:41:22;;;;;;;;;;;1.20;99.90;;;;;;5113289;28;19923;-74
2021/12/09 03:43:48;;;;;;;;;;;1.20;99.90;;;;;;5113388;28;19927;-74
2021/12/09 03:46:13;;;;;;;;;;;1.30;99.90;;;;;;5113373;28;19965;-74
2021/12/09 03:48:39;;;;;;;;;;;1.30;99.90;;;;;;5095185;28;20028;-74
2021/12/09 03:51:04;;;;;;;;;;;1.20;99.90;;;;;;5112907;28;19920;-74
2021/12/09 03:53:30;;;;;;;;;;;1.20;99.90;;;;;;5078156;28;20003;-74
2021/12/09 03:55:56;;;;;;;;;;;1.20;99.90;;;;;;5078165;28;19920;-74
2021/12/09 03:58:21;;;;;;;;;;;1.30;99.90;;;;;;5094448;28;20382;-74
2021/12/09 04:00:47;;;;;;;;;;;1.20;99.90;;;;;;5094367;28;19936;-74
2021/12/09 04:03:13;;;;;;;;;;;1.30;99.90;;;;;;5113011;28;19924;-74
2021/12/09 04:05:38;;;;;;;;;;;1.30;99.90;;;;;;5112568;28;19923;-74
2021/12/09 04:08:04;;;;;;;;;;;1.30;99.90;;;;;;5112829;28;19927;-74
2021/12/09 04:10:33;;;;;;;;;;;1.30;99.90;;;;;;5094721;28;19919;-74
2021/12/09 04:12:58;;;;;;;;;;;1.20;99.90;;;;;;5094707;28;20301;-74
2021/12/09 04:15:24;;;;;;;;;;;1.30;99.90;;;;;;5112601;28;19919;-74
2021/12/09 04:17:50;;;;;;;;;;;1.30;99.90;;;;;;5094221;28;19919;-74
2021/12/09 04:20:15;;;;;;;;;;;1.30;99.90;;;;;;5094689;28;20018;-74
2021/12/09 04:22:48;;;;;;;;;;;1.30;99.90;;;;;;5094324;28;20014;-74
2021/12/09 04:25:14;;;;;;;;;;;1.20;99.90;;;;;;5094348;28;20651;-74
2021/12/09 04:27:40;;;;;;;;;;;1.20;99.90;;;;;;5094329;28;19967;-74
2021/12/09 04:30:06;;;;;;;;;;;1.20;99.90;;;;;;5094014;28;19967;-74
2021/12/09 04:32:31;;;;;;;;;;;1.20;99.90;;;;;;5094304;28;19920;-74
2021/12/09 04:34:57;;;;;;;;;;;1.20;99.90;;;;;;5094050;28;19920;-74
2021/12/09 04:37:22;;;;;;;;;;;1.20;99.90;;;;;;5094149;28;19920;-74
2021/12/09 04:39:48;;;;;;;;;;;1.20;99.90;;;;;;5093467;28;19919;-74
2021/12/09 04:42:13;;;;;;;;;;;1.20;99.90;;;;;;5094296;28;20301;-74
2021/12/09 04:44:39;;;;;;;;;;;1.20;99.90;;;;;;5077175;28;19927;-74
2021/12/09 04:47:04;;;;;;;;;;;1.20;99.90;;;;;;5094388;28;19919;-74
2021/12/09 04:49:30;;;;;;;;;;;1.20;99.90;;;;;;5093609;28;20042;-74
2021/12/09 04:51:57;;;;;;;;;;;1.20;99.90;;;;;;5094114;28;19920;-74
2021/12/09 04:54:23;;;;;;;;;;;1.30;99.90;;;;;;5093684;28;19920;-74
2021/12/09 04:56:49;;;;;;;;;;;1.30;99.90;;;;;;5093602;28;19923;-74
2021/12/09 04:59:14;;;;;;;;;;;1.30;99.90;;;;;;5093610;28;20398;-74
2021/12/09 05:01:44;;;;;;;;;;;1.30;99.90;;;;;;5093785;28;19920;-74
2021/12/09 05:04:10;;;;;;;;;;;1.30;99.90;;;;;;5111820;28;19927;-74
2021/12/09 05:06:35;;;;;;;;;;;1.20;99.90;;;;;;5111228;28;19919;-74
2021/12/09 05:09:08;;;;;;;;;;;1.20;99.90;;;;;;5093458;28;20290;-74
2021/12/09 05:11:55;;;;;;;;;;;1.20;99.90;;;;;;5092936;28;19920;-74
2021/12/09 05:14:21;;;;;;;;;;;1.20;99.90;;;;;;5092594;28;19919;-74
2021/12/09 05:16:50;;;;;;;;;;;1.20;99.90;;;;;;5092782;28;21458;-74
2021/12/09 05:19:15;;;;;;;;;;;1.20;99.90;;;;;;5076208;28;19957;-74
2021/12/09 05:21:41;;;;;;;;;;;1.20;99.90;;;;;;5093015;28;19923;-74
2021/12/09 05:24:07;;;;;;;;;;;1.20;99.90;;;;;;5092851;28;19930;-74
2021/12/09 05:26:40;;;;;;;;;;;1.20;99.90;;;;;;5110293;28;19931;-74
2021/12/09 05:29:05;;;;;;;;;;;1.20;99.90;;;;;;5093010;28;20022;-74
2021/12/09 05:34:15;;;;;;;;;;;1.20;99.90;;;;;;5093263;28;20448;-74
2021/12/09 05:36:41;;;;;;;;;;;1.20;99.90;;;;;;5092765;28;19924;-74
2021/12/09 05:39:08;;;;;;;;;;;1.20;99.90;;;;;;5111206;28;20034;-74
2021/12/09 05:41:34;;;;;;;;;;;1.20;99.90;;;;;;5109729;28;20370;-74
2021/12/09 05:44:00;;;;;;;;;;;1.20;99.90;;;;;;5092816;28;19930;-74
2021/12/09 05:46:25;;;;;;;;;;;1.20;99.90;;;;;;5111340;28;20309;-74
2021/12/09 05:48:51;;;;;;;;;;;1.20;99.90;;;;;;5075706;28;19991;-74
2021/12/09 05:51:16;;;;;;;;;;;1.20;99.90;;;;;;5075667;28;19924;-74
2021/12/09 05:53:42;;;;;;;;;;;1.20;99.90;;;;;;5092584;28;19924;-74
2021/12/09 05:56:07;;;;;;;;;;;1.20;99.90;;;;;;5092741;28;19928;-74
2021/12/09 05:58:33;;;;;;;;;;;1.20;99.90;;;;;;5092780;28;19950;-74
2021/12/09 06:00:58;;;;;;;;;;;1.20;99.90;;;;;;5092698;28;19924;-74
2021/12/09 06:03:24;;;;;;;;;;;1.20;99.90;;;;;;5092131;28;19980;-74
2021/12/09 06:05:50;;;;;;;;;;;1.20;99.90;;;;;;5092881;28;20323;-74
2021/12/09 06:08:16;;;;;;;;;;;1.20;99.90;;;;;;5088914;28;19970;-74
2021/12/09 06:10:42;;;;;;;;;;;1.20;99.90;;;;;;5090385;28;19928;-74
2021/12/09 06:13:07;;;;;;;;;;;1.20;99.90;;;;;;5072280;28;19928;-74
2021/12/09 06:15:33;;;;;;;;;;;1.10;99.90;;;;;;5088691;28;20382;-74
2021/12/09 06:17:59;;;;;;;;;;;1.20;99.90;;;;;;5089003;28;19924;-74
2021/12/09 06:20:25;;;;;;;;;;;1.10;99.90;;;;;;5088900;28;19928;-74
2021/12/09 06:22:51;;;;;;;;;;;1.10;99.90;;;;;;5088402;28;19927;-74
2021/12/09 06:25:18;;;;;;;;;;;1.10;99.90;;;;;;5088394;28;19924;-74
2021/12/09 06:27:45;;;;;;;;;;;1.10;99.90;;;;;;5089012;28;20321;-75
2021/12/09 06:30:10;;;;;;;;;;;1.10;99.90;;;;;;5088321;28;19931;-74
2021/12/09 06:32:36;;;;;;;;;;;1.10;99.90;;;;;;5088729;28;19924;-74
2021/12/09 06:35:04;;;;;;;;;;;1.10;99.90;;;;;;5088674;28;20400;-74
2021/12/09 06:37:30;;;;;;;;;;;1.10;99.90;;;;;;5088653;28;20568;-74
2021/12/09 06:39:55;;;;;;;;;;;1.10;99.90;;;;;;5088959;28;20014;-74
2021/12/09 06:42:21;;;;;;;;;;;1.10;99.90;;;;;;5085257;28;19954;-74
2021/12/09 06:44:46;;;;;;;;;;;1.10;99.90;;;;;;5088291;28;19924;-74
2021/12/09 06:47:12;;;;;;;;;;;1.10;99.90;;;;;;5088585;28;20036;-74
2021/12/09 06:49:37;;;;;;;;;;;1.10;99.90;;;;;;5088112;28;20362;-74
2021/12/09 06:52:03;;;;;;;;;;;1.00;99.90;;;;;;5086401;28;20429;-75
2021/12/09 06:54:28;;;;;;;;;;;1.00;99.90;;;;;;5082810;28;19931;-74
2021/12/09 06:56:54;;;;;;;;;;;1.00;99.90;;;;;;5076778;28;19960;-74
2021/12/09 06:59:20;;;;;;;;;;;1.00;99.90;;;;;;5086398;28;20951;-74
2021/12/09 07:01:45;;;;;;;;;;;1.00;99.90;;;;;;5071245;28;20063;-74
2021/12/09 07:04:11;;;;;;;;;;;1.00;99.90;;;;;;5088373;28;20039;-73
2021/12/09 07:06:37;;;;;;;;;;;1.00;99.90;;;;;;5091568;28;19931;-73
2021/12/09 07:09:04;;;;;;;;;;;1.00;99.90;;;;;;5109103;28;20428;-72
2021/12/09 07:11:31;;;;;;;;;;;1.00;99.90;;;;;;5109235;28;19923;-73
2021/12/09 07:13:57;;;;;;;;;;;1.00;99.90;;;;;;5109391;28;19924;-73
2021/12/09 07:16:22;;;;;;;;;;;1.00;99.90;;;;;;5084988;28;19938;-74
2021/12/09 07:18:48;;;;;;;;;;;1.00;99.90;;;;;;5109660;28;20015;-74
2021/12/09 07:21:13;;;;;;;;;;;1.00;99.90;;;;;;5105608;28;19955;-73
2021/12/09 07:23:39;;;;;;;;;;;1.00;99.90;;;;;;5109337;28;19973;-73
2021/12/09 07:26:05;;;;;;;;;;;1.00;99.90;;;;;;5091168;28;20294;-73
2021/12/09 07:28:30;;;;;;;;;;;1.00;99.90;;;;;;5070599;28;19932;-73
2021/12/09 07:30:56;;;;;;;;;;;1.00;99.90;;;;;;5108714;28;19931;-74
2021/12/09 07:33:21;;;;;;;;;;;1.00;99.90;;;;;;5110255;28;20369;-73
2021/12/09 07:35:47;;;;;;;;;;;1.00;99.90;;;;;;5113462;28;20437;-72
2021/12/09 07:38:13;;;;;;;;;;;1.00;99.90;;;;;;5095108;28;19927;-72
2021/12/09 07:40:39;;;;;;;;;;;1.00;99.90;;;;;;5112321;28;20061;-72
2021/12/09 07:43:05;;;;;;;;;;;1.00;99.90;;;;;;5093680;28;20022;-72
2021/12/09 07:45:31;;;;;;;;;;;1.00;99.90;;;;;;5112972;28;19931;-72
2021/12/09 07:47:57;;;;;;;;;;;1.00;99.90;;;;;;5088907;28;19928;-72
2021/12/09 07:50:24;;;;;;;;;;;1.00;99.90;;;;;;5094386;28;20299;-72
2021/12/09 07:52:51;;;;;;;;;;;1.00;99.90;;;;;;5110887;28;19934;-72
2021/12/09 07:55:17;;;;;;;;;;;1.00;99.90;;;;;;5095041;28;20285;-72
2021/12/09 07:57:43;;;;;;;;;;;1.00;99.90;;;;;;5094964;28;20303;-72
2021/12/09 08:00:14;;;;;;;;;;;1.00;99.90;;;;;;5094820;28;19923;-72
2021/12/09 08:02:40;;;;;;;;;;;1.00;99.90;;;;;;5093590;28;19924;-72
2021/12/09 08:05:06;;;;;;;;;;;1.00;99.90;;;;;;5094465;28;19966;-72
2021/12/09 08:07:31;;;;;;;;;;;1.00;99.90;;;;;;5094177;28;19961;-72
2021/12/09 08:09:57;;;;;;;;;;;1.00;99.90;;;;;;5094861;28;20438;-72
2021/12/09 08:12:22;;;;;;;;;;;1.00;99.90;;;;;;5112621;28;20428;-72
2021/12/09 08:14:48;;;;;;;;;;;1.00;99.90;;;;;;5112431;28;20060;-72
2021/12/09 08:19:59;;;;;;;;;;;1.00;99.90;;;;;;5093877;28;19928;-72
2021/12/09 08:22:26;;;;;;;;;;;1.00;99.90;;;;;;5111906;28;19931;-72
2021/12/09 08:24:55;;;;;;;;;;;1.00;99.90;;;;;;5093575;28;20001;-72
2021/12/09 08:27:21;;;;;;;;;;;1.00;99.90;;;;;;5093856;28;19928;-73
2021/12/09 08:29:46;;;;;;;;;;;1.00;99.90;;;;;;5089438;28;19923;-72
2021/12/09 08:32:12;;;;;;;;;;;1.00;99.90;;;;;;5089633;28;19927;-72
2021/12/09 08:34:37;;;;;;;;;;;1.00;99.90;;;;;;5093210;28;19924;-72
2021/12/09 08:37:03;;;;;;;;;;;1.00;99.90;;;;;;5093323;28;19931;-72
2021/12/09 08:39:28;;;;;;;;;;;1.00;99.90;;;;;;5077208;28;20026;-72
2021/12/09 08:41:54;;;;;;;;;;;1.00;99.90;;;;;;5093403;28;19924;-72
2021/12/09 08:44:20;;;;;;;;;;;1.00;99.90;;;;;;5093756;28;19930;-73
2021/12/09 08:46:45;;;;;;;;;;;1.00;99.90;;;;;;5093369;28;20046;-73
2021/12/09 08:49:10;;;;;;;;;;;1.00;99.90;;;;;;5093922;28;20294;-72
2021/12/09 08:51:37;;;;;;;;;;;1.00;99.90;;;;;;5094098;28;19924;-72
2021/12/09 08:54:03;;;;;;;;;;;1.00;99.90;;;;;;5093142;28;20003;-72
2021/12/09 08:56:29;;;;;;;;;;;1.10;99.90;;;;;;5093881;28;19931;-73
2021/12/09 08:58:55;;;;;;;;;;;1.10;99.90;;;;;;5093117;28;19931;-72
2021/12/09 09:01:20;;;;;;;;;;;1.10;99.90;;;;;;5093020;28;19928;-72
2021/12/09 09:03:46;;;;;;;;;;;1.10;99.90;;;;;;5093857;28;20380;-72
2021/12/09 09:06:11;;;;;;;;;;;1.20;99.90;;;;;;5093407;28;19928;-72
2021/12/09 09:08:37;;;;;;;;;;;1.20;99.90;;;;;;5093501;28;19931;-72
2021/12/09 09:11:03;;;;;;;;;;;1.20;99.90;;;;;;5093666;28;19930;-74
2021/12/09 09:13:29;;;;;;;;;;;1.30;99.90;;;;;;5093169;28;19930;-73
2021/12/09 09:15:54;;;;;;;;;;;1.30;99.90;;;;;;5093768;28;19924;-72
2021/12/09 09:18:20;;;;;;;;;;;1.30;99.90;;;;;;5093141;28;20425;-73
2021/12/09 09:20:46;;;;;;;;;;;1.30;99.90;;;;;;5072660;28;20003;-73
2021/12/09 09:23:14;;;;;;;;;;;1.40;99.90;;;;;;5092644;28;20022;-73
2021/12/09 09:25:40;;;;;;;;;;;1.40;99.90;;;;;;5110742;28;19924;-73
2021/12/09 09:28:06;;;;;;;;;;;1.40;99.90;;;;;;5092352;28;19924;-73
2021/12/09 09:30:36;;;;;;;;;;;1.40;99.90;;;;;;5093546;28;20430;-73
2021/12/09 09:33:03;;;;;;;;;;;1.50;99.90;;;;;;5092728;28;20438;-73
2021/12/09 09:35:29;;;;;;;;;;;1.50;99.90;;;;;;5092754;28;19924;-73
2021/12/09 09:37:54;;;;;;;;;;;1.50;99.90;;;;;;5092643;28;19923;-73
2021/12/09 09:40:40;;;;;;;;;;;1.60;99.90;;;;;;5092345;28;19935;-73
2021/12/09 09:43:15;;;;;;;;;;;1.60;99.90;;;;;;5111097;28;19931;-73
2021/12/09 09:45:41;;;;;;;;;;;1.60;99.90;;;;;;5091847;28;19924;-73
2021/12/09 09:48:12;;;;;;;;;;;1.70;99.90;;;;;;5092341;28;19932;-73
2021/12/09 09:50:39;;;;;;;;;;;1.70;99.90;;;;;;5110306;28;19996;-73
2021/12/09 09:53:07;;;;;;;;;;;1.70;99.90;;;;;;5092559;28;19985;-73
2021/12/09 09:55:33;;;;;;;;;;;1.80;99.90;;;;;;5092385;28;19932;-73
2021/12/09 09:57:58;;;;;;;;;;;1.80;99.90;;;;;;5091714;28;19927;-73
2021/12/09 10:00:24;;;;;;;;;;;1.90;99.90;;;;;;5092171;28;19931;-73
2021/12/09 10:02:53;;;;;;;;;;;1.90;99.90;;;;;;5091612;28;20007;-73
2021/12/09 10:05:22;;;;;;;;;;;1.90;99.90;;;;;;5092047;28;20297;-73
2021/12/09 10:07:49;;;;;;;;;;;1.90;99.90;;;;;;5092283;28;19950;-73
2021/12/09 10:10:14;;;;;;;;;;;1.90;99.90;;;;;;5092052;28;19976;-73
2021/12/09 10:13:00;;;;;;;;;;;2.00;99.90;;;;;;5091572;28;20308;-73
2021/12/09 10:15:33;;;;;;;;;;;2.00;99.90;;;;;;5091443;28;20484;-73
2021/12/09 10:17:58;;;;;;;;;;;2.10;99.90;;;;;;5110305;28;20304;-73
2021/12/09 10:20:40;;;;;;;;;;;2.10;99.90;;;;;;5110334;28;19928;-73
2021/12/09 10:23:20;;;;;;;;;;;2.10;99.90;;;;;;5091303;28;19930;-73
2021/12/09 10:26:06;;;;;;;;;;;2.20;99.90;;;;;;5092357;28;19923;-73
2021/12/09 10:28:34;;;;;;;;;;;2.20;99.90;;;;;;5092031;28;19927;-73
2021/12/09 10:31:10;;;;;;;;;;;2.30;99.90;;;;;;5092129;28;19928;-73
2021/12/09 10:34:19;;;;;;;;;;;2.30;99.90;;;;;;5071198;28;19935;-73
2021/12/09 10:36:48;;;;;;;;;;;2.40;99.90;;;;;;4992525;28;19996;-72
2021/12/09 10:39:21;;;;;;;;;;;2.40;99.90;;;;;;5092423;28;20916;-72
2021/12/09 10:41:47;;;;;;;;;;;2.50;99.90;;;;;;5110174;28;19923;-72
2021/12/09 10:44:13;;;;;;;;;;;2.50;99.90;;;;;;5091712;28;20385;-72
2021/12/09 10:46:55;;;;;;;;;;;2.70;99.90;;;;;;5109688;28;19984;-72
2021/12/09 10:49:22;;;;;;;;;;;2.90;99.90;;;;;;5109978;28;20433;-73
2021/12/09 10:51:58;;;;;;;;;;;3.00;99.90;;;;;;5109881;28;19968;-73
2021/12/09 10:54:32;;;;;;;;;;;3.00;99.90;;;;;;5109735;28;19969;-72
2021/12/09 10:57:17;;;;;;;;;;;3.10;99.90;;;;;;5090780;28;19928;-73
2021/12/09 10:59:43;;;;;;;;;;;3.20;99.90;;;;;;5108312;28;19930;-73
2021/12/09 11:02:09;;;;;;;;;;;3.30;99.90;;;;;;5090276;28;20410;-73
2021/12/09 11:04:35;;;;;;;;;;;3.30;99.90;;;;;;5091528;28;20386;-73
2021/12/09 11:07:18;;;;;;;;;;;3.40;99.90;;;;;;5109340;28;19923;-73
2021/12/09 11:09:43;;;;;;;;;;;3.40;99.90;;;;;;5077201;28;19924;-73
2021/12/09 11:12:25;;;;;;;;;;;3.50;99.90;;;;;;5095040;28;19924;-73
2021/12/09 11:14:57;;;;;;;;;;;3.60;99.90;;;;;;5095350;28;19930;-73
2021/12/09 11:17:33;;;;;;;;;;;3.80;99.90;;;;;;5094948;28;19923;-73
2021/12/09 11:19:59;;;;;;;;;;;4.00;99.90;;;;;;5092286;28;19924;-73
2021/12/09 11:22:29;;;;;;;;;;;4.30;99.90;;;;;;5095165;28;19931;-73
2021/12/09 11:24:59;;;;;;;;;;;4.60;99.90;;;;;;5113420;28;19959;-73
2021/12/09 11:27:26;;;;;;;;;;;4.70;99.90;;;;;;5095065;28;19931;-73
2021/12/09 11:29:56;;;;;;;;;;;4.60;99.90;;;;;;5112932;28;19923;-73
2021/12/09 11:32:47;;;;;;;;;;;4.40;99.90;;;;;;5095019;28;20072;-73
2021/12/09 11:35:16;;;;;;;;;;;4.20;99.90;;;;;;5081644;28;20420;-72
2021/12/09 11:37:48;;;;;;;;;;;4.10;99.90;;;;;;5113138;28;19936;-73
2021/12/09 11:40:36;;;;;;;;;;;3.90;99.90;;;;;;5113133;28;20023;-73
2021/12/09 11:43:02;;;;;;;;;;;3.80;99.90;;;;;;5077557;28;20359;-73
2021/12/09 11:45:30;;;;;;;;;;;3.70;99.90;;;;;;5112694;28;19924;-74
2021/12/09 11:47:56;;;;;;;;;;;3.60;99.90;;;;;;5094611;28;20386;-74
2021/12/09 11:50:23;;;;;;;;;;;3.50;99.90;;;;;;5112971;28;19935;-73
2021/12/09 11:52:51;;;;;;;;;;;3.50;99.90;;;;;;5113101;28;20026;-73
2021/12/09 11:55:20;;;;;;;;;;;3.40;99.90;;;;;;5113184;28;19924;-73
2021/12/09 11:57:52;;;;;;;;;;;3.40;99.90;;;;;;5113100;28;20022;-73
2021/12/09 12:21:12;;;;;;;;;;;3.30;99.90;;;;;;5093107;28;19923;-74
2021/12/09 12:29:46;;;;;;;;;;;3.30;99.90;;;;;;5051118;28;19950;-74
2021/12/09 12:32:47;;;;;;;;;;;3.30;99.90;;;;;;5074429;28;19924;-75
2021/12/09 12:40:26;;;;;;;;;;;3.20;99.90;;;;;;5093754;28;20267;-74
2021/12/09 12:43:08;;;;;;;;;;;3.30;99.90;;;;;;5092717;28;19966;-73
2021/12/09 12:48:30;;;;;;;;;;;3.20;99.90;;;;;;5092467;28;20064;-73
2021/12/09 12:51:07;;;;;;;;;;;3.20;99.90;;;;;;5102712;28;20394;-73
2021/12/09 12:53:37;;;;;;;;;;;3.20;99.90;;;;;;5075823;28;20028;-73
2021/12/09 12:56:16;;;;;;;;;;;3.20;99.90;;;;;;5092436;28;20305;-73
2021/12/09 12:59:01;;;;;;;;;;;3.20;99.90;;;;;;5092639;28;19934;-73
2021/12/09 13:01:27;;;;;;;;;;;3.10;99.90;;;;;;5091694;28;19928;-73
2021/12/09 13:03:56;;;;;;;;;;;3.10;99.90;;;;;;5092158;28;20796;-73
2021/12/09 13:06:47;;;;;;;;;;;3.20;99.90;;;;;;5075084;28;19962;-73
2021/12/09 13:09:38;;;;;;;;;;;3.20;99.90;;;;;;5092228;28;19970;-73
2021/12/09 13:12:08;;;;;;;;;;;3.20;99.90;;;;;;5110409;28;19934;-73
2021/12/09 13:14:53;;;;;;;;;;;3.20;99.90;;;;;;5091854;28;19931;-73
2021/12/09 13:17:35;;;;;;;;;;;3.20;99.90;;;;;;5055434;28;19924;-73
2021/12/09 13:20:05;;;;;;;;;;;3.20;99.90;;;;;;5092307;28;20006;-71
2021/12/09 13:22:38;;;;;;;;;;;3.20;99.90;;;;;;5110264;28;20390;-72
2021/12/09 13:25:07;;;;;;;;;;;3.20;99.90;;;;;;5092265;28;20382;-72
2021/12/09 13:36:14;;;;;;;;;;;3.30;99.90;;;;;;5091843;28;20002;-73
2021/12/09 13:49:02;;;;;;;;;;;3.30;99.90;;;;;;5091544;28;19983;-73
2021/12/09 13:54:23;;;;;;;;;;;3.30;99.90;;;;;;5091613;28;19931;-73
2021/12/09 13:56:53;;;;;;;;;;;3.30;99.90;;;;;;5091840;28;19998;-73
2021/12/09 13:59:21;;;;;;;;;;;3.40;99.90;;;;;;5091035;28;19959;-72
2021/12/09 14:01:47;;;;;;;;;;;3.40;99.90;;;;;;5109599;28;19930;-73
2021/12/09 14:04:14;;;;;;;;;;;3.40;99.90;;;;;;5109482;28;19934;-72
2021/12/09 14:09:35;;;;;;;;;;;3.40;99.90;;;;;;5109800;28;20290;-72
2021/12/09 14:12:03;;;;;;;;;;;3.40;99.90;;;;;;5091027;28;20415;-72
2021/12/09 14:14:40;;;;;;;;;;;3.40;99.90;;;;;;5074511;28;20312;-73
2021/12/09 14:17:10;;;;;;;;;;;3.40;99.90;;;;;;5110692;28;19924;-73
2021/12/09 14:22:40;;;;;;;;;;;3.40;99.90;;;;;;5110549;28;19970;-73
2021/12/09 14:25:20;;;;;;;;;;;3.40;99.90;;;;;;5110037;28;19927;-73
2021/12/09 14:27:48;;;;;;;;;;;3.40;99.90;;;;;;5110189;28;20010;-73
2021/12/09 14:30:14;;;;;;;;;;;3.40;99.90;;;;;;5110226;28;19928;-73
2021/12/09 14:32:44;;;;;;;;;;;3.50;99.90;;;;;;5091673;28;19928;-73
2021/12/09 14:35:17;;;;;;;;;;;3.40;99.90;;;;;;5092018;28;19924;-73
2021/12/09 14:37:48;;;;;;;;;;;3.40;99.90;;;;;;5092127;28;19969;-73
2021/12/09 14:40:15;;;;;;;;;;;3.40;99.90;;;;;;5108492;28;20362;-72
2021/12/09 14:43:02;;;;;;;;;;;3.40;99.90;;;;;;5109234;28;19971;-73
2021/12/09 14:45:29;;;;;;;;;;;3.40;99.90;;;;;;5114249;28;20618;-73
2021/12/09 14:47:56;;;;;;;;;;;3.40;99.90;;;;;;5114265;28;19930;-72
2021/12/09 14:50:28;;;;;;;;;;;3.40;99.90;;;;;;5113758;28;19950;-73
2021/12/09 14:52:54;;;;;;;;;;;3.50;99.90;;;;;;5112981;28;19923;-73
2021/12/09 14:55:24;;;;;;;;;;;3.40;99.90;;;;;;5113267;28;19930;-73
2021/12/09 14:57:51;;;;;;;;;;;3.40;99.90;;;;;;5114406;28;19923;-73
2021/12/09 15:00:35;;;;;;;;;;;3.40;99.90;;;;;;5113543;28;20535;-73
2021/12/09 15:03:02;;;;;;;;;;;3.50;99.90;;;;;;5112844;28;19927;-73
2021/12/09 15:05:29;;;;;;;;;;;3.50;99.90;;;;;;5113444;28;19924;-73
2021/12/09 15:08:05;;;;;;;;;;;3.50;99.90;;;;;;5078198;28;20139;-73
2021/12/09 15:10:33;;;;;;;;;;;3.40;99.90;;;;;;5094076;28;19924;-73
2021/12/09 15:12:59;;;;;;;;;;;3.50;99.90;;;;;;5094219;28;20405;-73
2021/12/09 15:15:26;;;;;;;;;;;3.50;99.90;;;;;;5095163;28;19924;-73
2021/12/09 15:17:57;;;;;;;;;;;3.50;99.90;;;;;;5095768;28;20420;-73
2021/12/09 15:20:40;;;;;;;;;;;3.50;99.90;;;;;;5095544;28;19924;-73
2021/12/09 15:23:13;;;;;;;;;;;3.50;99.90;;;;;;5095491;28;19924;-71
2021/12/09 15:25:40;;;;;;;;;;;3.50;99.90;;;;;;5113809;28;19924;-71
2021/12/09 15:28:12;;;;;;;;;;;3.50;99.90;;;;;;5112997;28;19935;-72
2021/12/09 15:30:40;;;;;;;;;;;3.50;99.90;;;;;;5094883;28;19931;-73
2021/12/09 15:33:06;;;;;;;;;;;3.50;99.90;;;;;;5113069;28;19931;-73
2021/12/09 15:35:33;;;;;;;;;;;3.50;99.90;;;;;;5095001;28;19924;-73
2021/12/09 15:38:00;;;;;;;;;;;3.50;99.90;;;;;;5094749;28;20293;-73
2021/12/09 15:40:27;;;;;;;;;;;3.50;99.90;;;;;;5095349;28;20267;-73
2021/12/09 15:42:52;;;;;;;;;;;3.50;99.90;;;;;;5094999;28;19931;-73
2021/12/09 15:45:21;;;;;;;;;;;3.50;99.90;;;;;;5095190;28;20362;-73